Terminal Aerodrome Forecast
Issued by NWS

Home | Current Version | Previous Version | Text Only | Print | Product List | Glossary On
Versions: 1 2 3 4 5 6 7 8 9 10 11 12 13 14 15 16 17 18 19 20 21 22 23 24 25 26 27 28 29 30
325
FTUS41 KOKX 271722
TAFHPN
TAF
KHPN 271722Z 2718/2818 09005KT 2SM -DZ BR VV003
     FM271900 07008KT 3SM BR VV006
     FM280200 05009KT 6SM BR OVC007
     FM280500 04006KT P6SM OVC009
     FM281200 06004KT P6SM OVC010
     FM281400 10004KT P6SM BKN015
     FM281600 16005KT P6SM BKN025
      AMD NOT SKED=

USA.gov is the U.S. government's official web portal to all federal, state and local government web resources and services.